Latest Weather Observations for Yanakie

IDV60801

Issued at 3:03 pm EDT Tuesday 28 March 2017 (issued every 30 minutes, with the page automatically refreshed every 10 minutes)

About weather observations | Map of weather stations | Latest weather observations for VIC | Other Formats
Station Details ID: 085301 Name: YANAKIE Lat: -38.81 Lon: 146.19 Height: 13.3 m
Data from the previous 72 hours. | See also: Recent months at Yanakie
Date/Time
EDT
Temp
°C
App
Temp
°C
Dew
Point
°C
Rel
Hum
%
Delta-T
°C
Wind Press
QNH
hPa
Press
MSL
hPa
Rain since
9am
mm
Dir  Spd
km/h
Gust
km/h
Spd
kts
Gust
kts
28/03:00pm 20.9 16.7 11.0 53 5.4 WSW 24 30 13 16 1012.2 1012.1 0.0
28/02:30pm 20.9 16.9 10.4 51 5.7 W 22 35 12 19 1012.3 1012.2 0.0
28/02:00pm 20.4 15.6 10.2 52 5.5 W 26 35 14 19 1012.6 1012.5 0.0
28/01:30pm 21.0 16.7 10.8 52 5.6 W 24 33 13 18 1012.9 1012.8 0.0
28/01:00pm 19.7 14.5 10.4 55 5.0 W 28 37 15 20 1013.5 1013.4 0.0
28/12:30pm 19.2 14.2 11.0 59 4.5 W 28 39 15 21 1013.7 1013.6 0.0
28/12:00pm 19.9 15.3 10.9 56 4.9 W 26 33 14 18 1013.8 1013.7 0.0
28/11:30am 19.5 15.2 12.0 62 4.2 WNW 26 35 14 19 1013.8 1013.7 0.0
28/11:00am 18.6 15.0 13.0 70 3.2 WNW 24 32 13 17 1014.0 1013.9 0.0
28/10:30am 17.8 14.5 12.7 72 2.8 WNW 22 37 12 20 1013.9 1013.8 0.0
28/10:00am 16.9 13.5 12.6 76 2.4 NW 22 30 12 16 1013.9 1013.8 0.0
28/09:30am 16.1 13.3 12.7 80 1.9 NW 19 28 10 15 1013.7 1013.6 0.0
28/09:00am 15.2 12.7 12.3 83 1.6 NW 17 20 9 11 1013.6 1013.5 4.2
28/08:30am 14.1 11.8 11.8 86 1.2 WNW 15 17 8 9 1013.5 1013.4 4.2
28/08:00am 12.8 10.2 10.7 87 1.1 NW 15 19 8 10 1013.5 1013.4 4.2
28/07:30am 12.2 9.9 10.4 89 0.9 NW 13 15 7 8 1013.3 1013.2 4.2
28/07:00am 11.9 9.9 10.0 88 1.0 NW 11 15 6 8 1013.1 1013.0 4.2
28/06:30am 12.0 9.9 9.9 87 1.1 NW 11 17 6 9 1012.8 1012.7 4.2
28/06:00am 12.2 10.1 9.9 86 1.2 NW 11 15 6 8 1012.5 1012.4 4.2
28/05:30am 12.5 10.1 10.2 86 1.2 NW 13 17 7 9 1012.4 1012.3 4.2
28/05:00am 12.6 10.2 10.0 84 1.3 NW 13 17 7 9 1012.1 1012.0 4.2
28/04:30am 12.9 10.5 10.1 83 1.4 NW 13 19 7 10 1012.1 1012.0 4.2
28/04:00am 13.2 10.9 10.4 83 1.5 NW 13 17 7 9 1012.2 1012.1 4.2
28/03:30am 13.5 11.3 10.7 83 1.5 NW 13 19 7 10 1012.4 1012.3 4.2
28/03:00am 13.9 12.2 11.1 83 1.5 NW 11 15 6 8 1012.4 1012.3 4.2
28/02:30am 13.3 11.5 10.7 84 1.4 NW 11 15 6 8 1012.5 1012.4 4.2
28/02:00am 13.6 11.5 11.0 84 1.4 NW 13 17 7 9 1012.5 1012.4 4.2
28/01:30am 14.1 12.1 11.4 84 1.4 NW 13 17 7 9 1012.5 1012.4 4.2
28/01:00am 13.9 11.9 11.4 85 1.3 NW 13 19 7 10 1012.5 1012.4 4.2
28/12:30am 13.5 11.7 10.9 84 1.4 NW 11 17 6 9 1012.4 1012.3 4.2
28/12:00am 13.9 11.8 11.1 83 1.5 NW 13 17 7 9 1012.3 1012.2 4.2
 
Date/Time
EDT
Temp
°C
App
Temp
°C
Dew
Point
°C
Rel
Hum
%
Delta-T
°C
Wind Press
QNH
hPa
Press
MSL
hPa
Rain since
9am
mm
Dir  Spd
km/h
Gust
km/h
Spd
kts
Gust
kts
27/11:30pm 13.8 11.7 11.1 84 1.4 NW 13 17 7 9 1012.4 1012.3 4.2
27/11:00pm 13.5 11.7 10.9 84 1.4 NW 11 15 6 8 1012.3 1012.2 4.0
27/10:30pm 13.9 12.2 11.1 83 1.5 NNW 11 17 6 9 1012.3 1012.2 4.0
27/10:00pm 13.9 11.5 11.4 85 1.3 NNW 15 20 8 11 1012.3 1012.2 4.0
27/09:30pm 13.3 11.6 11.2 87 1.1 NW 11 17 6 9 1012.0 1011.9 4.0
27/09:00pm 13.3 11.5 11.0 86 1.2 NW 11 15 6 8 1011.8 1011.7 4.0
27/08:30pm 13.9 11.6 11.6 86 1.2 NW 15 20 8 11 1011.5 1011.4 4.0
27/08:00pm 13.5 11.9 11.4 87 1.1 WNW 11 15 6 8 1011.1 1011.0 4.0
27/07:30pm 14.1 12.2 11.8 86 1.2 NW 13 20 7 11 1010.9 1010.8 4.0
27/07:00pm 14.6 11.5 12.3 86 1.3 WNW 20 30 11 16 1010.7 1010.6 4.0
27/06:30pm 14.8 11.2 13.0 89 1.0 WNW 24 32 13 17 1010.4 1010.3 4.0
27/06:00pm 14.6 11.8 13.1 91 0.8 NW 20 32 11 17 1010.2 1010.1 4.0
27/05:30pm 13.1 11.0 11.3 89 1.0 WNW 13 20 7 11 1010.2 1010.1 4.0
27/05:00pm 13.3 7.7 11.4 88 1.0 W 32 43 17 23 1010.6 1010.5 3.2
27/04:30pm 15.6 10.6 14.0 90 0.9 W 33 57 18 31 1010.0 1009.9 1.8
27/04:00pm 15.7 8.1 13.7 88 1.1 W 46 70 25 38 1009.6 1009.5 1.2
27/03:30pm 17.3 10.5 14.4 83 1.7 WSW 43 63 23 34 1008.2 1008.1 0.0
27/03:00pm 20.1 13.0 13.3 65 3.9 WSW 43 63 23 34 1007.4 1007.3 0.0
27/02:46pm 20.6 15.8 14.5 68 3.6 SW 33 52 18 28 1007.1 1007.0 0.0
27/02:30pm 20.7 15.6 15.7 73 3.0 WSW 37 50 20 27 1007.1 1007.0 0.0
27/02:20pm 20.9 14.3 16.3 75 2.8 SW 46 65 25 35 1006.8 1006.7 0.0
27/02:00pm 21.4 12.2 17.0 76 2.7 WSW 61 83 33 45 1006.1 1006.0 0.0
27/01:50pm 22.8 14.3 17.7 73 3.2 WSW 59 80 32 43 1005.4 1005.3 0.0
27/01:36pm 24.7 15.1 16.9 62 4.8 W 63 93 34 50 1003.4 1003.3 0.0
27/01:34pm 28.0 18.8 16.9 51 6.9 WNW 61 93 33 50 1003.0 1002.9 0.0
27/01:30pm 35.6 26.5 14.8 28 12.9 WNW 56 74 30 40 1001.9 1001.8 0.0
27/01:14pm 36.1 29.0 14.1 26 13.6 NW 44 76 24 41 1001.4 1001.3 0.0
27/01:00pm 36.1 29.6 14.1 26 13.6 NNW 41 59 22 32 1001.4 1001.3 0.0
27/12:48pm 36.4 32.9 15.5 29 13.2 NNW 28 46 15 25 1001.4 1001.3 0.0
27/12:30pm 34.5 31.0 15.4 32 11.9 NNW 28 39 15 21 1001.5 1001.4 0.0
27/12:00pm 33.0 29.5 15.5 35 10.9 NNW 28 44 15 24 1001.4 1001.3 0.0
27/11:30am 31.7 28.1 15.2 36 10.2 N 28 46 15 25 1001.8 1001.7 0.0
27/11:00am 28.8 27.6 16.0 45 7.9 N 17 28 9 15 1002.4 1002.3 0.0
27/10:30am 25.0 25.5 17.5 63 4.7 NE 11 24 6 13 1003.2 1003.1 0.0
27/10:00am 23.4 24.2 18.1 72 3.3 ENE 11 19 6 10 1003.6 1003.5 0.0
27/09:30am 23.1 22.9 17.6 71 3.4 ENE 15 19 8 10 1003.9 1003.8 0.0
27/09:00am 22.9 22.9 18.0 74 3.1 ENE 15 20 8 11 1004.4 1004.3 0.0
27/08:30am 21.2 21.7 18.4 84 1.7 ENE 13 19 7 10 1004.5 1004.4 0.0
27/08:00am 19.6 20.0 18.1 91 0.9 ENE 13 17 7 9 1005.1 1005.0 0.0
27/07:30am 19.1 20.5 17.8 92 0.8 ENE 7 11 4 6 1005.5 1005.4 0.0
27/07:00am 19.1 20.5 17.9 93 0.7 ENE 7 11 4 6 1005.8 1005.7 0.0
27/06:30am 19.1 20.1 17.8 92 0.8 NE 9 15 5 8 1005.9 1005.8 0.0
27/06:00am 19.1 20.1 17.8 92 0.8 NE 9 13 5 7 1006.3 1006.2 0.0
27/05:30am 19.0 19.2 17.7 92 0.8 ENE 13 19 7 10 1006.4 1006.3 0.0
27/05:00am 18.8 18.1 17.3 91 0.9 ENE 17 24 9 13 1006.5 1006.4 0.0
27/04:30am 18.8 18.4 17.1 90 1.0 ENE 15 20 8 11 1007.0 1006.9 0.0
27/04:00am 18.9 18.5 17.2 90 1.0 NE 15 24 8 13 1007.1 1007.0 0.0
27/03:30am 19.0 18.6 17.1 89 1.2 ENE 15 20 8 11 1007.6 1007.5 0.0
27/03:00am 18.9 18.1 17.0 89 1.2 ENE 17 22 9 12 1008.5 1008.4 0.0
27/02:30am 18.7 18.6 17.0 90 1.0 ENE 13 17 7 9 1009.1 1009.0 0.0
27/02:00am 18.5 19.1 16.7 89 1.1 E 9 15 5 8 1009.6 1009.5 0.0
27/01:30am 18.7 18.9 16.7 88 1.2 E 11 19 6 10 1010.1 1010.0 0.0
27/01:00am 18.7 18.5 16.7 88 1.2 E 13 22 7 12 1010.3 1010.2 0.0
27/12:30am 18.9 18.7 16.7 87 1.3 E 13 20 7 11 1011.2 1011.1 0.0
27/12:00am 18.7 17.2 16.3 86 1.4 ENE 19 28 10 15 1011.4 1011.3 0.0
 
Date/Time
EDT
Temp
°C
App
Temp
°C
Dew
Point
°C
Rel
Hum
%
Delta-T
°C
Wind Press
QNH
hPa
Press
MSL
hPa
Rain since
9am
mm
Dir  Spd
km/h
Gust
km/h
Spd
kts
Gust
kts
26/11:30pm 18.6 16.5 16.2 86 1.4 ENE 22 33 12 18 1012.0 1011.9 0.0
26/11:00pm 18.5 16.1 16.5 88 1.2 ENE 24 33 13 18 1012.3 1012.2 0.0
26/10:30pm 18.7 16.9 16.9 89 1.1 ENE 22 33 12 18 1012.6 1012.5 0.0
26/10:00pm 18.6 16.4 16.9 90 1.0 ENE 24 32 13 17 1012.9 1012.8 0.0
26/09:30pm 18.6 17.2 16.9 90 1.0 ENE 20 32 11 17 1013.1 1013.0 0.0
26/09:00pm 18.6 17.3 16.8 89 1.1 ENE 19 24 10 13 1013.1 1013.0 0.0
26/08:30pm 18.4 17.8 16.6 89 1.1 ENE 15 22 8 12 1013.1 1013.0 0.0
26/08:00pm 18.5 17.5 16.5 88 1.2 ENE 17 24 9 13 1013.1 1013.0 0.0
26/07:30pm 18.9 18.6 16.5 86 1.4 ENE 13 20 7 11 1013.1 1013.0 0.0
26/07:00pm 19.6 19.5 17.0 85 1.6 ENE 13 20 7 11 1013.0 1012.9 0.0
26/06:30pm 20.1 19.6 16.9 82 1.9 ENE 15 20 8 11 1013.0 1012.9 0.0
26/06:00pm 20.8 20.8 17.2 80 2.2 ENE 13 19 7 10 1012.9 1012.8 0.0
26/05:30pm 21.2 21.1 17.0 77 2.6 ENE 13 17 7 9 1012.9 1012.8 0.0
26/05:00pm 21.6 21.7 17.4 77 2.6 ENE 13 19 7 10 1012.8 1012.7 0.0
26/04:30pm 22.2 22.8 17.6 75 2.8 ENE 11 17 6 9 1013.0 1012.9 0.0
26/04:00pm 22.2 23.5 17.6 75 2.8 E 7 11 4 6 1013.1 1013.0 0.0
26/03:30pm 22.2 22.6 16.2 69 3.6 SSW 9 13 5 7 1013.2 1013.1 0.0
26/03:00pm 22.7 22.9 16.7 69 3.7 SSW 11 15 6 8 1013.3 1013.2 0.0
26/02:30pm 23.1 23.4 17.1 69 3.7 SSW 11 17 6 9 1013.7 1013.6 0.0
26/02:00pm 22.6 23.1 16.6 69 3.7 SSW 9 15 5 8 1014.0 1013.9 0.0
26/01:30pm 22.2 22.4 16.7 71 3.4 SW 11 15 6 8 1014.4 1014.3 0.0
26/01:00pm 22.4 22.6 16.7 70 3.5 SSW 11 15 6 8 1014.9 1014.8 0.0
26/12:30pm 22.4 23.7 17.1 72 3.3 SW 6 9 3 5 1015.3 1015.2 0.0
26/12:00pm 21.0 21.7 16.2 74 2.9 WSW 7 11 4 6 1015.8 1015.7 0.0
26/11:30am 20.5 21.0 16.5 78 2.4 SW 9 13 5 7 1016.0 1015.9 0.0
26/11:00am 20.2 21.2 16.4 79 2.3 WSW 6 9 3 5 1016.0 1015.9 0.0
26/10:30am 19.7 21.0 16.2 80 2.1 SW 4 7 2 4 1016.0 1015.9 0.0
26/10:00am 19.5 20.6 16.5 83 1.8 SSW 6 7 3 4 1015.7 1015.6 0.0
26/09:30am 19.1 20.2 17.1 88 1.2 SSW 7 9 4 5 1015.6 1015.5 0.0
26/09:00am 18.4 19.4 16.9 91 0.9 SSW 7 9 4 5 1015.5 1015.4 0.0
26/08:30am 18.3 19.6 17.1 93 0.7 SW 6 7 3 4 1015.2 1015.1 0.0
26/08:00am 18.2 19.5 17.0 93 0.7 SW 6 7 3 4 1014.9 1014.8 0.0
26/07:30am 18.1 19.2 17.1 94 0.6 WSW 7 9 4 5 1014.8 1014.7 0.0
26/07:00am 18.1 19.2 17.1 94 0.6 WSW 7 9 4 5 1014.4 1014.3 0.0
26/06:30am 18.1 19.2 17.1 94 0.6 W 7 11 4 6 1014.1 1014.0 0.0
26/06:00am 18.1 18.8 17.1 94 0.6 W 9 11 5 6 1013.7 1013.6 0.0
26/05:30am 18.1 18.8 17.1 94 0.6 W 9 13 5 7 1013.6 1013.5 0.0
26/05:00am 18.1 19.2 17.1 94 0.6 W 7 11 4 6 1013.3 1013.2 0.0
26/04:30am 18.2 18.6 17.2 94 0.6 W 11 15 6 8 1013.2 1013.1 0.0
26/04:00am 18.1 19.2 17.1 94 0.6 WNW 7 9 4 5 1013.0 1012.9 0.0
26/03:30am 18.2 18.9 17.0 93 0.7 WNW 9 11 5 6 1013.3 1013.2 0.0
26/03:00am 17.5 18.5 16.4 93 0.7 WSW 6 7 3 4 1013.3 1013.2 0.0
26/02:30am 16.6 17.6 15.3 92 0.8 W 4 6 2 3 1013.3 1013.2 0.0
26/02:00am 17.2 18.0 15.9 92 0.8 W 6 7 3 4 1013.7 1013.6 0.0
26/01:30am 17.1 17.7 15.8 92 0.8 W 7 11 4 6 1013.3 1013.2 0.0
26/01:00am 17.0 18.2 15.9 93 0.6 WSW 4 6 2 3 1013.2 1013.1 0.0
26/12:30am 17.0 17.6 15.7 92 0.8 SW 7 9 4 5 1013.4 1013.3 0.0
26/12:00am 16.9 17.5 15.4 91 0.9 W 6 7 3 4 1013.4 1013.3 0.0
 
Date/Time
EDT
Temp
°C
App
Temp
°C
Dew
Point
°C
Rel
Hum
%
Delta-T
°C
Wind Press
QNH
hPa
Press
MSL
hPa
Rain since
9am
mm
Dir  Spd
km/h
Gust
km/h
Spd
kts
Gust
kts
25/11:30pm 17.3 18.1 15.8 91 0.9 WSW 6 7 3 4 1013.6 1013.5 0.0
25/11:00pm 17.1 17.7 15.4 90 1.0 WSW 6 11 3 6 1013.5 1013.4 0.0
25/10:30pm - - - - - WSW 6 9 3 5 1013.2 1013.1 0.0
25/10:00pm 17.1 18.2 14.7 86 1.4 WSW 2 6 1 3 1013.1 1013.0 0.0
25/09:30pm - - - - - CALM 0 0 0 0 1012.8 1012.7 0.0
25/09:00pm - - - - - E 4 7 2 4 1012.5 1012.4 0.0
25/08:30pm 19.3 20.0 16.0 81 2.0 E 7 7 4 4 1012.2 1012.1 0.0
25/08:00pm 20.1 20.7 15.7 76 2.6 E 7 9 4 5 1011.8 1011.7 0.0
25/07:30pm - - - - - E 4 6 2 3 1011.6 1011.5 0.0
25/07:00pm - - - - - E 4 6 2 3 1011.4 1011.3 0.0
25/06:30pm - - - - - SSW 7 9 4 5 1011.2 1011.1 0.0
25/06:00pm - - - - - SSW 7 13 4 7 1010.9 1010.8 0.0
25/05:30pm - - - - - SW 7 9 4 5 1010.9 1010.8 0.0
25/05:00pm - - - - - SW 7 11 4 6 1010.8 1010.7 0.0
25/04:30pm - - - - - SW 9 13 5 7 1010.8 1010.7 0.0
25/04:00pm - - - - - WSW 9 13 5 7 1011.0 1010.9 0.0
25/03:30pm - - - - - WSW 13 19 7 10 1011.0 1010.9 0.0

Other Formats:

Comma delimited format used in spreadsheet applications
http://www.bom.gov.au/fwo/IDV60801/IDV60801.94911.axf

JavaScript Object Notation format (JSON) in row-major order
http://www.bom.gov.au/fwo/IDV60801/IDV60801.94911.json